sensor_id;sensor_type;location;lat;lon;timestamp;temperature;humidity
13796;SHT30;40911;51.552;9.874;2023-08-20T00:01:21;20.96;94.02
13796;SHT30;40911;51.552;9.874;2023-08-20T00:03:44;20.82;94.71
13796;SHT30;40911;51.552;9.874;2023-08-20T00:06:07;20.99;93.89
13796;SHT30;40911;51.552;9.874;2023-08-20T00:08:30;21.00;93.78
13796;SHT30;40911;51.552;9.874;2023-08-20T00:10:52;21.11;93.35
13796;SHT30;40911;51.552;9.874;2023-08-20T00:13:14;21.10;93.42
13796;SHT30;40911;51.552;9.874;2023-08-20T00:15:36;21.10;92.89
13796;SHT30;40911;51.552;9.874;2023-08-20T00:17:58;21.00;93.39
13796;SHT30;40911;51.552;9.874;2023-08-20T00:20:20;21.04;93.25
13796;SHT30;40911;51.552;9.874;2023-08-20T00:22:43;20.95;93.41
13796;SHT30;40911;51.552;9.874;2023-08-20T00:25:08;21.03;93.25
13796;SHT30;40911;51.552;9.874;2023-08-20T00:27:30;20.96;93.45
13796;SHT30;40911;51.552;9.874;2023-08-20T00:29:51;20.92;93.69
13796;SHT30;40911;51.552;9.874;2023-08-20T00:32:14;20.80;94.26
13796;SHT30;40911;51.552;9.874;2023-08-20T00:34:36;20.82;94.30
13796;SHT30;40911;51.552;9.874;2023-08-20T00:36:58;20.96;93.75
13796;SHT30;40911;51.552;9.874;2023-08-20T00:39:19;21.02;93.13
13796;SHT30;40911;51.552;9.874;2023-08-20T00:41:43;20.90;94.09
13796;SHT30;40911;51.552;9.874;2023-08-20T00:44:05;20.80;94.43
13796;SHT30;40911;51.552;9.874;2023-08-20T00:46:27;20.77;94.70
13796;SHT30;40911;51.552;9.874;2023-08-20T00:48:49;20.75;94.66
13796;SHT30;40911;51.552;9.874;2023-08-20T00:51:11;20.77;94.54
13796;SHT30;40911;51.552;9.874;2023-08-20T00:53:32;20.87;94.12
13796;SHT30;40911;51.552;9.874;2023-08-20T00:55:54;20.58;95.04
13796;SHT30;40911;51.552;9.874;2023-08-20T00:58:18;20.51;95.31
13796;SHT30;40911;51.552;9.874;2023-08-20T01:00:40;20.34;95.91
13796;SHT30;40911;51.552;9.874;2023-08-20T01:03:03;20.62;95.03
13796;SHT30;40911;51.552;9.874;2023-08-20T01:05:25;20.75;94.51
13796;SHT30;40911;51.552;9.874;2023-08-20T01:07:58;20.62;94.38
13796;SHT30;40911;51.552;9.874;2023-08-20T01:10:25;20.68;94.28
13796;SHT30;40911;51.552;9.874;2023-08-20T01:12:51;20.68;94.38
13796;SHT30;40911;51.552;9.874;2023-08-20T01:15:15;20.69;94.03
13796;SHT30;40911;51.552;9.874;2023-08-20T01:17:37;20.69;93.74
13796;SHT30;40911;51.552;9.874;2023-08-20T01:19:58;20.65;93.89
13796;SHT30;40911;51.552;9.874;2023-08-20T01:22:41;20.65;93.76
13796;SHT30;40911;51.552;9.874;2023-08-20T01:25:16;20.53;93.81
13796;SHT30;40911;51.552;9.874;2023-08-20T01:27:46;20.51;94.03
13796;SHT30;40911;51.552;9.874;2023-08-20T01:30:14;20.27;94.88
13796;SHT30;40911;51.552;9.874;2023-08-20T01:32:37;20.32;95.04
13796;SHT30;40911;51.552;9.874;2023-08-20T01:35:02;20.44;94.64
13796;SHT30;40911;51.552;9.874;2023-08-20T01:37:24;20.55;93.96
13796;SHT30;40911;51.552;9.874;2023-08-20T01:39:46;20.52;94.27
13796;SHT30;40911;51.552;9.874;2023-08-20T01:42:08;20.69;93.70
13796;SHT30;40911;51.552;9.874;2023-08-20T01:44:29;20.59;94.09
13796;SHT30;40911;51.552;9.874;2023-08-20T01:46:53;20.65;94.17
13796;SHT30;40911;51.552;9.874;2023-08-20T01:49:14;20.63;94.61
13796;SHT30;40911;51.552;9.874;2023-08-20T01:51:36;20.82;93.92
13796;SHT30;40911;51.552;9.874;2023-08-20T01:53:58;20.79;94.11
13796;SHT30;40911;51.552;9.874;2023-08-20T01:56:20;20.80;94.46
13796;SHT30;40911;51.552;9.874;2023-08-20T01:58:42;20.86;94.13
13796;SHT30;40911;51.552;9.874;2023-08-20T02:01:03;20.80;94.62
13796;SHT30;40911;51.552;9.874;2023-08-20T02:03:26;20.90;94.15
13796;SHT30;40911;51.552;9.874;2023-08-20T02:05:49;21.00;93.83
13796;SHT30;40911;51.552;9.874;2023-08-20T02:08:10;20.89;94.52
13796;SHT30;40911;51.552;9.874;2023-08-20T02:10:32;21.02;93.96
13796;SHT30;40911;51.552;9.874;2023-08-20T02:12:54;20.93;93.99
13796;SHT30;40911;51.552;9.874;2023-08-20T02:15:16;20.92;94.02
13796;SHT30;40911;51.552;9.874;2023-08-20T02:17:38;20.95;93.78
13796;SHT30;40911;51.552;9.874;2023-08-20T02:20:01;20.73;94.53
13796;SHT30;40911;51.552;9.874;2023-08-20T02:22:25;20.68;94.76
13796;SHT30;40911;51.552;9.874;2023-08-20T02:24:49;20.58;95.32
13796;SHT30;40911;51.552;9.874;2023-08-20T02:27:11;20.51;95.43
13796;SHT30;40911;51.552;9.874;2023-08-20T02:29:33;20.60;95.17
13796;SHT30;40911;51.552;9.874;2023-08-20T02:31:55;20.75;94.96
13796;SHT30;40911;51.552;9.874;2023-08-20T02:34:16;20.73;94.87
13796;SHT30;40911;51.552;9.874;2023-08-20T02:36:40;20.75;94.82
13796;SHT30;40911;51.552;9.874;2023-08-20T02:39:01;20.75;94.64
13796;SHT30;40911;51.552;9.874;2023-08-20T02:41:25;20.77;94.61
13796;SHT30;40911;51.552;9.874;2023-08-20T02:43:47;20.72;94.67
13796;SHT30;40911;51.552;9.874;2023-08-20T02:46:09;20.69;94.73
13796;SHT30;40911;51.552;9.874;2023-08-20T02:48:30;20.66;94.58
13796;SHT30;40911;51.552;9.874;2023-08-20T02:50:52;20.55;95.30
13796;SHT30;40911;51.552;9.874;2023-08-20T02:53:15;20.80;94.54
13796;SHT30;40911;51.552;9.874;2023-08-20T02:55:37;20.69;94.94
13796;SHT30;40911;51.552;9.874;2023-08-20T02:57:59;20.72;94.70
13796;SHT30;40911;51.552;9.874;2023-08-20T03:00:21;20.65;95.35
13796;SHT30;40911;51.552;9.874;2023-08-20T03:02:43;20.76;94.46
13796;SHT30;40911;51.552;9.874;2023-08-20T03:05:05;20.65;95.12
13796;SHT30;40911;51.552;9.874;2023-08-20T03:07:27;20.66;95.26
13796;SHT30;40911;51.552;9.874;2023-08-20T03:09:50;20.65;95.41
13796;SHT30;40911;51.552;9.874;2023-08-20T03:12:12;20.73;95.00
13796;SHT30;40911;51.552;9.874;2023-08-20T03:14:34;20.71;95.18
13796;SHT30;40911;51.552;9.874;2023-08-20T03:16:56;20.79;94.93
13796;SHT30;40911;51.552;9.874;2023-08-20T03:19:18;20.90;94.50
13796;SHT30;40911;51.552;9.874;2023-08-20T03:21:39;20.89;94.49
13796;SHT30;40911;51.552;9.874;2023-08-20T03:24:02;20.86;94.59
13796;SHT30;40911;51.552;9.874;2023-08-20T03:26:25;20.93;94.42
13796;SHT30;40911;51.552;9.874;2023-08-20T03:28:46;20.95;94.56
13796;SHT30;40911;51.552;9.874;2023-08-20T03:31:08;21.02;94.30
13796;SHT30;40911;51.552;9.874;2023-08-20T03:33:30;20.92;94.53
13796;SHT30;40911;51.552;9.874;2023-08-20T03:35:52;20.90;94.88
13796;SHT30;40911;51.552;9.874;2023-08-20T03:38:13;20.89;95.09
13796;SHT30;40911;51.552;9.874;2023-08-20T03:40:35;21.00;94.52
13796;SHT30;40911;51.552;9.874;2023-08-20T03:42:58;20.96;94.71
13796;SHT30;40911;51.552;9.874;2023-08-20T03:45:20;20.97;94.72
13796;SHT30;40911;51.552;9.874;2023-08-20T03:47:42;21.00;95.11
13796;SHT30;40911;51.552;9.874;2023-08-20T03:50:07;21.03;94.69
13796;SHT30;40911;51.552;9.874;2023-08-20T03:52:29;21.08;94.38
13796;SHT30;40911;51.552;9.874;2023-08-20T03:54:51;21.11;94.05
13796;SHT30;40911;51.552;9.874;2023-08-20T03:57:13;21.04;94.66
13796;SHT30;40911;51.552;9.874;2023-08-20T03:59:36;21.08;94.28
13796;SHT30;40911;51.552;9.874;2023-08-20T04:01:58;21.15;94.12
13796;SHT30;40911;51.552;9.874;2023-08-20T04:04:20;21.14;94.06
13796;SHT30;40911;51.552;9.874;2023-08-20T04:06:42;21.08;94.31
13796;SHT30;40911;51.552;9.874;2023-08-20T04:09:04;21.11;94.40
13796;SHT30;40911;51.552;9.874;2023-08-20T04:11:26;20.99;94.86
13796;SHT30;40911;51.552;9.874;2023-08-20T04:13:47;21.04;94.69
13796;SHT30;40911;51.552;9.874;2023-08-20T04:16:11;20.95;95.33
13796;SHT30;40911;51.552;9.874;2023-08-20T04:18:34;21.07;94.70
13796;SHT30;40911;51.552;9.874;2023-08-20T04:20:55;21.13;94.48
13796;SHT30;40911;51.552;9.874;2023-08-20T04:23:18;21.11;94.58
13796;SHT30;40911;51.552;9.874;2023-08-20T04:25:40;21.13;94.36
13796;SHT30;40911;51.552;9.874;2023-08-20T04:28:01;20.99;95.07
13796;SHT30;40911;51.552;9.874;2023-08-20T04:30:23;21.04;95.07
13796;SHT30;40911;51.552;9.874;2023-08-20T04:32:46;21.17;94.23
13796;SHT30;40911;51.552;9.874;2023-08-20T04:35:09;21.15;94.50
13796;SHT30;40911;51.552;9.874;2023-08-20T04:37:31;21.13;94.45
13796;SHT30;40911;51.552;9.874;2023-08-20T04:39:53;21.14;94.33
13796;SHT30;40911;51.552;9.874;2023-08-20T04:42:15;21.10;94.66
13796;SHT30;40911;51.552;9.874;2023-08-20T04:44:37;21.13;94.50
13796;SHT30;40911;51.552;9.874;2023-08-20T04:47:00;21.18;94.11
13796;SHT30;40911;51.552;9.874;2023-08-20T04:49:23;21.13;94.43
13796;SHT30;40911;51.552;9.874;2023-08-20T04:51:48;21.10;94.66
13796;SHT30;40911;51.552;9.874;2023-08-20T04:54:10;21.23;94.17
13796;SHT30;40911;51.552;9.874;2023-08-20T04:56:32;21.20;94.32
13796;SHT30;40911;51.552;9.874;2023-08-20T04:58:53;21.26;94.02
13796;SHT30;40911;51.552;9.874;2023-08-20T05:01:15;21.20;94.26
13796;SHT30;40911;51.552;9.874;2023-08-20T05:03:37;21.17;94.31
13796;SHT30;40911;51.552;9.874;2023-08-20T05:06:00;21.21;94.15
13796;SHT30;40911;51.552;9.874;2023-08-20T05:08:22;21.26;93.99
13796;SHT30;40911;51.552;9.874;2023-08-20T05:10:44;21.17;94.40
13796;SHT30;40911;51.552;9.874;2023-08-20T05:13:09;21.18;94.35
13796;SHT30;40911;51.552;9.874;2023-08-20T05:15:30;21.20;94.33
13796;SHT30;40911;51.552;9.874;2023-08-20T05:17:52;21.21;94.19
13796;SHT30;40911;51.552;9.874;2023-08-20T05:20:14;21.14;94.44
13796;SHT30;40911;51.552;9.874;2023-08-20T05:22:37;21.21;94.08
13796;SHT30;40911;51.552;9.874;2023-08-20T05:24:59;21.20;94.13
13796;SHT30;40911;51.552;9.874;2023-08-20T05:27:21;21.15;94.19
13796;SHT30;40911;51.552;9.874;2023-08-20T05:29:43;21.24;93.92
13796;SHT30;40911;51.552;9.874;2023-08-20T05:32:05;21.27;94.04
13796;SHT30;40911;51.552;9.874;2023-08-20T05:34:27;21.33;94.03
13796;SHT30;40911;51.552;9.874;2023-08-20T05:36:49;21.45;93.70
13796;SHT30;40911;51.552;9.874;2023-08-20T05:39:12;21.42;93.96
13796;SHT30;40911;51.552;9.874;2023-08-20T05:41:34;21.28;94.23
13796;SHT30;40911;51.552;9.874;2023-08-20T05:43:55;21.38;93.51
13796;SHT30;40911;51.552;9.874;2023-08-20T05:46:17;21.18;94.11
13796;SHT30;40911;51.552;9.874;2023-08-20T05:48:39;21.13;94.25
13796;SHT30;40911;51.552;9.874;2023-08-20T05:51:01;21.26;94.03
13796;SHT30;40911;51.552;9.874;2023-08-20T05:53:22;21.40;94.05
13796;SHT30;40911;51.552;9.874;2023-08-20T05:55:45;21.51;93.09
13796;SHT30;40911;51.552;9.874;2023-08-20T05:58:07;21.50;93.23
13796;SHT30;40911;51.552;9.874;2023-08-20T06:00:29;21.23;94.07
13796;SHT30;40911;51.552;9.874;2023-08-20T06:02:51;21.37;93.58
13796;SHT30;40911;51.552;9.874;2023-08-20T06:05:12;21.38;93.50
13796;SHT30;40911;51.552;9.874;2023-08-20T06:07:34;21.44;93.19
13796;SHT30;40911;51.552;9.874;2023-08-20T06:09:56;21.38;93.32
13796;SHT30;40911;51.552;9.874;2023-08-20T06:12:19;21.55;92.91
13796;SHT30;40911;51.552;9.874;2023-08-20T06:14:41;21.51;93.00
13796;SHT30;40911;51.552;9.874;2023-08-20T06:17:03;21.55;92.79
13796;SHT30;40911;51.552;9.874;2023-08-20T06:19:25;21.47;92.58
13796;SHT30;40911;51.552;9.874;2023-08-20T06:21:47;21.52;92.70
13796;SHT30;40911;51.552;9.874;2023-08-20T06:24:09;21.63;92.35
13796;SHT30;40911;51.552;9.874;2023-08-20T06:26:31;21.54;91.95
13796;SHT30;40911;51.552;9.874;2023-08-20T06:28:54;21.45;92.06
13796;SHT30;40911;51.552;9.874;2023-08-20T06:31:16;21.51;91.94
13796;SHT30;40911;51.552;9.874;2023-08-20T06:33:37;21.90;91.13
13796;SHT30;40911;51.552;9.874;2023-08-20T06:35:59;21.89;91.31
13796;SHT30;40911;51.552;9.874;2023-08-20T06:38:21;22.00;91.45
13796;SHT30;40911;51.552;9.874;2023-08-20T06:40:43;21.99;91.04
13796;SHT30;40911;51.552;9.874;2023-08-20T06:43:05;21.83;91.70
13796;SHT30;40911;51.552;9.874;2023-08-20T06:45:28;22.10;90.88
13796;SHT30;40911;51.552;9.874;2023-08-20T06:47:49;22.23;90.43
13796;SHT30;40911;51.552;9.874;2023-08-20T06:50:11;22.26;90.30
13796;SHT30;40911;51.552;9.874;2023-08-20T06:52:33;22.33;90.08
13796;SHT30;40911;51.552;9.874;2023-08-20T06:54:55;22.27;89.88
13796;SHT30;40911;51.552;9.874;2023-08-20T06:57:17;22.33;89.91
13796;SHT30;40911;51.552;9.874;2023-08-20T06:59:38;22.71;89.06
13796;SHT30;40911;51.552;9.874;2023-08-20T07:02:02;22.84;89.18
13796;SHT30;40911;51.552;9.874;2023-08-20T07:04:24;22.58;89.02
13796;SHT30;40911;51.552;9.874;2023-08-20T07:06:46;22.74;89.12
13796;SHT30;40911;51.552;9.874;2023-08-20T07:09:08;22.75;87.63
13796;SHT30;40911;51.552;9.874;2023-08-20T07:11:30;23.07;87.42
13796;SHT30;40911;51.552;9.874;2023-08-20T07:13:52;22.96;88.05
13796;SHT30;40911;51.552;9.874;2023-08-20T07:16:14;23.30;87.78
13796;SHT30;40911;51.552;9.874;2023-08-20T07:18:37;23.54;86.79
13796;SHT30;40911;51.552;9.874;2023-08-20T07:20:59;23.87;85.64
13796;SHT30;40911;51.552;9.874;2023-08-20T07:23:20;24.18;85.88
13796;SHT30;40911;51.552;9.874;2023-08-20T07:25:42;24.08;84.52
13796;SHT30;40911;51.552;9.874;2023-08-20T07:28:05;24.12;84.64
13796;SHT30;40911;51.552;9.874;2023-08-20T07:30:27;24.29;84.42
13796;SHT30;40911;51.552;9.874;2023-08-20T07:32:49;23.92;84.30
13796;SHT30;40911;51.552;9.874;2023-08-20T07:35:13;24.08;85.40
13796;SHT30;40911;51.552;9.874;2023-08-20T07:37:34;24.01;84.60
13796;SHT30;40911;51.552;9.874;2023-08-20T07:39:56;24.16;84.13
13796;SHT30;40911;51.552;9.874;2023-08-20T07:42:18;24.46;83.78
13796;SHT30;40911;51.552;9.874;2023-08-20T07:44:40;24.53;84.78
13796;SHT30;40911;51.552;9.874;2023-08-20T07:47:02;24.71;83.77
13796;SHT30;40911;51.552;9.874;2023-08-20T07:49:23;25.32;81.79
13796;SHT30;40911;51.552;9.874;2023-08-20T07:51:46;25.15;81.79
13796;SHT30;40911;51.552;9.874;2023-08-20T07:54:08;25.23;81.19
13796;SHT30;40911;51.552;9.874;2023-08-20T07:56:30;25.05;80.72
13796;SHT30;40911;51.552;9.874;2023-08-20T07:58:52;25.22;82.95
13796;SHT30;40911;51.552;9.874;2023-08-20T08:01:14;25.74;80.65
13796;SHT30;40911;51.552;9.874;2023-08-20T08:03:37;25.80;79.89
13796;SHT30;40911;51.552;9.874;2023-08-20T08:05:58;25.42;80.30
13796;SHT30;40911;51.552;9.874;2023-08-20T08:08:22;25.12;80.92
13796;SHT30;40911;51.552;9.874;2023-08-20T08:10:45;25.10;80.80
13796;SHT30;40911;51.552;9.874;2023-08-20T08:13:07;25.05;81.00
13796;SHT30;40911;51.552;9.874;2023-08-20T08:15:29;24.88;80.87
13796;SHT30;40911;51.552;9.874;2023-08-20T08:17:51;24.88;81.19
13796;SHT30;40911;51.552;9.874;2023-08-20T08:20:12;24.78;81.61
13796;SHT30;40911;51.552;9.874;2023-08-20T08:22:34;25.00;82.09
13796;SHT30;40911;51.552;9.874;2023-08-20T08:24:57;25.12;80.25
13796;SHT30;40911;51.552;9.874;2023-08-20T08:27:19;25.05;80.40
13796;SHT30;40911;51.552;9.874;2023-08-20T08:29:41;25.43;80.06
13796;SHT30;40911;51.552;9.874;2023-08-20T08:32:03;25.40;80.45
13796;SHT30;40911;51.552;9.874;2023-08-20T08:34:25;25.60;80.24
13796;SHT30;40911;51.552;9.874;2023-08-20T08:36:46;26.04;79.35
13796;SHT30;40911;51.552;9.874;2023-08-20T08:39:08;25.93;78.83
13796;SHT30;40911;51.552;9.874;2023-08-20T08:41:32;25.88;78.29
13796;SHT30;40911;51.552;9.874;2023-08-20T08:43:56;25.87;78.21
13796;SHT30;40911;51.552;9.874;2023-08-20T08:46:17;25.29;78.77
13796;SHT30;40911;51.552;9.874;2023-08-20T08:48:40;25.42;79.17
13796;SHT30;40911;51.552;9.874;2023-08-20T08:51:02;26.28;78.38
13796;SHT30;40911;51.552;9.874;2023-08-20T08:53:24;26.12;78.01
13796;SHT30;40911;51.552;9.874;2023-08-20T08:55:47;26.34;77.45
13796;SHT30;40911;51.552;9.874;2023-08-20T08:58:10;26.34;77.53
13796;SHT30;40911;51.552;9.874;2023-08-20T09:00:31;26.92;76.58
13796;SHT30;40911;51.552;9.874;2023-08-20T09:02:53;26.78;78.46
13796;SHT30;40911;51.552;9.874;2023-08-20T09:05:15;27.15;75.27
13796;SHT30;40911;51.552;9.874;2023-08-20T09:07:42;26.76;74.94
13796;SHT30;40911;51.552;9.874;2023-08-20T09:10:04;26.84;75.60
13796;SHT30;40911;51.552;9.874;2023-08-20T09:12:26;28.12;73.27
13796;SHT30;40911;51.552;9.874;2023-08-20T09:14:51;28.10;71.70
13796;SHT30;40911;51.552;9.874;2023-08-20T09:17:15;27.17;73.62
13796;SHT30;40911;51.552;9.874;2023-08-20T09:19:37;27.66;73.67
13796;SHT30;40911;51.552;9.874;2023-08-20T09:21:59;27.66;73.33
13796;SHT30;40911;51.552;9.874;2023-08-20T09:24:26;27.79;71.62
13796;SHT30;40911;51.552;9.874;2023-08-20T09:26:57;27.90;72.44
13796;SHT30;40911;51.552;9.874;2023-08-20T09:29:19;27.47;73.96
13796;SHT30;40911;51.552;9.874;2023-08-20T09:31:42;27.99;73.76
13796;SHT30;40911;51.552;9.874;2023-08-20T09:34:05;27.68;73.03
13796;SHT30;40911;51.552;9.874;2023-08-20T09:36:31;27.62;74.86
13796;SHT30;40911;51.552;9.874;2023-08-20T09:38:53;28.21;71.71
13796;SHT30;40911;51.552;9.874;2023-08-20T09:41:15;28.52;73.02
13796;SHT30;40911;51.552;9.874;2023-08-20T09:43:38;27.92;71.93
13796;SHT30;40911;51.552;9.874;2023-08-20T09:46:02;28.23;70.92
13796;SHT30;40911;51.552;9.874;2023-08-20T09:48:27;28.35;71.01
13796;SHT30;40911;51.552;9.874;2023-08-20T09:50:52;28.34;72.50
13796;SHT30;40911;51.552;9.874;2023-08-20T09:53:22;28.64;71.06
13796;SHT30;40911;51.552;9.874;2023-08-20T09:55:48;28.64;70.00
13796;SHT30;40911;51.552;9.874;2023-08-20T09:58:13;28.86;69.03
13796;SHT30;40911;51.552;9.874;2023-08-20T10:00:35;28.76;71.06
13796;SHT30;40911;51.552;9.874;2023-08-20T10:02:57;28.20;69.61
13796;SHT30;40911;51.552;9.874;2023-08-20T10:05:22;27.65;68.84
13796;SHT30;40911;51.552;9.874;2023-08-20T10:07:45;28.49;70.15
13796;SHT30;40911;51.552;9.874;2023-08-20T10:10:08;28.60;69.36
13796;SHT30;40911;51.552;9.874;2023-08-20T10:12:34;29.50;69.62
13796;SHT30;40911;51.552;9.874;2023-08-20T10:14:56;29.06;69.60
13796;SHT30;40911;51.552;9.874;2023-08-20T10:17:18;28.44;67.23
13796;SHT30;40911;51.552;9.874;2023-08-20T10:19:40;27.57;69.50
13796;SHT30;40911;51.552;9.874;2023-08-20T10:22:04;28.72;67.79
13796;SHT30;40911;51.552;9.874;2023-08-20T10:24:28;28.38;68.19
13796;SHT30;40911;51.552;9.874;2023-08-20T10:27:09;29.38;69.27
13796;SHT30;40911;51.552;9.874;2023-08-20T10:29:38;29.75;68.38
13796;SHT30;40911;51.552;9.874;2023-08-20T10:32:00;29.88;69.25
13796;SHT30;40911;51.552;9.874;2023-08-20T10:34:32;29.80;69.93
13796;SHT30;40911;51.552;9.874;2023-08-20T10:36:55;29.74;69.17
13796;SHT30;40911;51.552;9.874;2023-08-20T10:39:21;29.47;68.75
13796;SHT30;40911;51.552;9.874;2023-08-20T10:41:43;29.88;67.95
13796;SHT30;40911;51.552;9.874;2023-08-20T10:44:05;29.61;69.15
13796;SHT30;40911;51.552;9.874;2023-08-20T10:46:27;29.14;67.34
13796;SHT30;40911;51.552;9.874;2023-08-20T10:48:51;29.51;68.07
13796;SHT30;40911;51.552;9.874;2023-08-20T10:51:14;28.81;68.51
13796;SHT30;40911;51.552;9.874;2023-08-20T10:53:37;28.98;67.65
13796;SHT30;40911;51.552;9.874;2023-08-20T10:56:12;29.68;67.17
13796;SHT30;40911;51.552;9.874;2023-08-20T10:58:34;29.41;68.29
13796;SHT30;40911;51.552;9.874;2023-08-20T11:01:14;29.81;66.18
13796;SHT30;40911;51.552;9.874;2023-08-20T11:03:36;29.54;66.42
13796;SHT30;40911;51.552;9.874;2023-08-20T11:05:58;29.25;66.76
13796;SHT30;40911;51.552;9.874;2023-08-20T11:08:20;29.74;65.89
13796;SHT30;40911;51.552;9.874;2023-08-20T11:10:42;30.26;63.91
13796;SHT30;40911;51.552;9.874;2023-08-20T11:13:05;30.40;65.74
13796;SHT30;40911;51.552;9.874;2023-08-20T11:15:28;30.42;64.96
13796;SHT30;40911;51.552;9.874;2023-08-20T11:17:49;30.59;65.62
13796;SHT30;40911;51.552;9.874;2023-08-20T11:20:14;30.29;63.53
13796;SHT30;40911;51.552;9.874;2023-08-20T11:22:36;29.91;63.75
13796;SHT30;40911;51.552;9.874;2023-08-20T11:24:59;30.57;64.24
13796;SHT30;40911;51.552;9.874;2023-08-20T11:27:26;30.30;65.27
13796;SHT30;40911;51.552;9.874;2023-08-20T11:29:49;30.85;64.18
13796;SHT30;40911;51.552;9.874;2023-08-20T11:32:13;30.96;64.02
13796;SHT30;40911;51.552;9.874;2023-08-20T11:34:35;30.85;62.23
13796;SHT30;40911;51.552;9.874;2023-08-20T11:36:58;30.63;63.79
13796;SHT30;40911;51.552;9.874;2023-08-20T11:39:20;30.72;63.47
13796;SHT30;40911;51.552;9.874;2023-08-20T11:41:42;30.78;61.85
13796;SHT30;40911;51.552;9.874;2023-08-20T11:44:04;30.75;61.39
13796;SHT30;40911;51.552;9.874;2023-08-20T11:46:27;30.50;60.11
13796;SHT30;40911;51.552;9.874;2023-08-20T11:49:01;31.01;63.24
13796;SHT30;40911;51.552;9.874;2023-08-20T11:51:24;31.47;61.69
13796;SHT30;40911;51.552;9.874;2023-08-20T11:53:46;31.51;60.68
13796;SHT30;40911;51.552;9.874;2023-08-20T11:56:13;31.15;62.92
13796;SHT30;40911;51.552;9.874;2023-08-20T11:58:35;30.91;59.54
13796;SHT30;40911;51.552;9.874;2023-08-20T12:00:56;30.56;58.10
13796;SHT30;40911;51.552;9.874;2023-08-20T12:03:22;31.25;58.70
13796;SHT30;40911;51.552;9.874;2023-08-20T12:05:44;31.51;59.49
13796;SHT30;40911;51.552;9.874;2023-08-20T12:08:06;31.94;59.24
13796;SHT30;40911;51.552;9.874;2023-08-20T12:10:30;30.91;59.00
13796;SHT30;40911;51.552;9.874;2023-08-20T12:12:53;31.39;58.73
13796;SHT30;40911;51.552;9.874;2023-08-20T12:15:16;31.32;59.84
13796;SHT30;40911;51.552;9.874;2023-08-20T12:17:38;31.40;59.12
13796;SHT30;40911;51.552;9.874;2023-08-20T12:20:01;31.57;59.10
13796;SHT30;40911;51.552;9.874;2023-08-20T12:22:30;31.80;58.33
13796;SHT30;40911;51.552;9.874;2023-08-20T12:24:55;31.69;58.32
13796;SHT30;40911;51.552;9.874;2023-08-20T12:27:17;31.36;59.81
13796;SHT30;40911;51.552;9.874;2023-08-20T12:29:42;31.85;59.04
13796;SHT30;40911;51.552;9.874;2023-08-20T12:32:05;32.12;57.78
13796;SHT30;40911;51.552;9.874;2023-08-20T12:34:27;31.72;58.26
13796;SHT30;40911;51.552;9.874;2023-08-20T12:36:51;30.94;60.61
13796;SHT30;40911;51.552;9.874;2023-08-20T12:39:12;31.36;59.33
13796;SHT30;40911;51.552;9.874;2023-08-20T12:41:34;32.08;59.09
13796;SHT30;40911;51.552;9.874;2023-08-20T12:43:57;32.31;59.52
13796;SHT30;40911;51.552;9.874;2023-08-20T12:46:18;31.80;59.17
13796;SHT30;40911;51.552;9.874;2023-08-20T12:48:41;32.03;60.82
13796;SHT30;40911;51.552;9.874;2023-08-20T12:51:02;31.60;60.85
13796;SHT30;40911;51.552;9.874;2023-08-20T12:53:26;32.20;59.38
13796;SHT30;40911;51.552;9.874;2023-08-20T12:55:48;32.83;58.00
13796;SHT30;40911;51.552;9.874;2023-08-20T12:58:09;31.94;60.82
13796;SHT30;40911;51.552;9.874;2023-08-20T13:00:31;31.62;60.00
13796;SHT30;40911;51.552;9.874;2023-08-20T13:02:54;32.10;60.71
13796;SHT30;40911;51.552;9.874;2023-08-20T13:05:16;31.98;60.51
13796;SHT30;40911;51.552;9.874;2023-08-20T13:07:39;31.47;60.94
13796;SHT30;40911;51.552;9.874;2023-08-20T13:10:03;32.42;60.03
13796;SHT30;40911;51.552;9.874;2023-08-20T13:12:27;32.27;60.96
13796;SHT30;40911;51.552;9.874;2023-08-20T13:14:49;33.38;58.30
13796;SHT30;40911;51.552;9.874;2023-08-20T13:17:11;33.45;57.91
13796;SHT30;40911;51.552;9.874;2023-08-20T13:19:33;33.04;59.11
13796;SHT30;40911;51.552;9.874;2023-08-20T13:21:55;32.51;60.94
13796;SHT30;40911;51.552;9.874;2023-08-20T13:24:16;33.52;58.93
13796;SHT30;40911;51.552;9.874;2023-08-20T13:26:40;33.55;59.09
13796;SHT30;40911;51.552;9.874;2023-08-20T13:29:02;33.68;57.44
13796;SHT30;40911;51.552;9.874;2023-08-20T13:31:23;32.77;58.44
13796;SHT30;40911;51.552;9.874;2023-08-20T13:33:46;33.33;57.42
13796;SHT30;40911;51.552;9.874;2023-08-20T13:36:08;33.59;56.88
13796;SHT30;40911;51.552;9.874;2023-08-20T13:38:29;33.89;60.10
13796;SHT30;40911;51.552;9.874;2023-08-20T13:40:52;34.17;57.03
13796;SHT30;40911;51.552;9.874;2023-08-20T13:43:15;33.34;57.73
13796;SHT30;40911;51.552;9.874;2023-08-20T13:45:37;33.16;58.72
13796;SHT30;40911;51.552;9.874;2023-08-20T13:48:00;33.57;58.09
13796;SHT30;40911;51.552;9.874;2023-08-20T13:50:21;34.13;56.98
13796;SHT30;40911;51.552;9.874;2023-08-20T13:52:43;34.61;58.18
13796;SHT30;40911;51.552;9.874;2023-08-20T13:55:06;33.50;57.75
13796;SHT30;40911;51.552;9.874;2023-08-20T13:57:28;33.25;57.15
13796;SHT30;40911;51.552;9.874;2023-08-20T13:59:51;33.23;58.00
13796;SHT30;40911;51.552;9.874;2023-08-20T14:02:13;34.17;57.66
13796;SHT30;40911;51.552;9.874;2023-08-20T14:04:35;32.39;58.33
13796;SHT30;40911;51.552;9.874;2023-08-20T14:06:57;31.98;61.15
13796;SHT30;40911;51.552;9.874;2023-08-20T14:09:18;32.32;59.53
13796;SHT30;40911;51.552;9.874;2023-08-20T14:11:40;32.36;58.50
13796;SHT30;40911;51.552;9.874;2023-08-20T14:14:02;33.10;57.89
13796;SHT30;40911;51.552;9.874;2023-08-20T14:16:25;33.50;58.26
13796;SHT30;40911;51.552;9.874;2023-08-20T14:18:48;33.20;57.13
13796;SHT30;40911;51.552;9.874;2023-08-20T14:21:10;33.14;56.88
13796;SHT30;40911;51.552;9.874;2023-08-20T14:23:31;32.48;57.80
13796;SHT30;40911;51.552;9.874;2023-08-20T14:25:55;32.48;57.37
13796;SHT30;40911;51.552;9.874;2023-08-20T14:28:17;33.03;57.79
13796;SHT30;40911;51.552;9.874;2023-08-20T14:30:39;33.06;58.80
13796;SHT30;40911;51.552;9.874;2023-08-20T14:33:02;32.00;59.71
13796;SHT30;40911;51.552;9.874;2023-08-20T14:35:24;32.38;59.31
13796;SHT30;40911;51.552;9.874;2023-08-20T14:37:46;32.95;57.68
13796;SHT30;40911;51.552;9.874;2023-08-20T14:40:09;32.65;57.58
13796;SHT30;40911;51.552;9.874;2023-08-20T14:42:32;32.80;57.53
13796;SHT30;40911;51.552;9.874;2023-08-20T14:44:53;32.91;61.45
13796;SHT30;40911;51.552;9.874;2023-08-20T14:47:15;32.76;59.05
13796;SHT30;40911;51.552;9.874;2023-08-20T14:49:39;32.56;58.70
13796;SHT30;40911;51.552;9.874;2023-08-20T14:52:01;30.87;60.61
13796;SHT30;40911;51.552;9.874;2023-08-20T14:54:22;32.05;60.55
13796;SHT30;40911;51.552;9.874;2023-08-20T14:56:44;32.29;60.69
13796;SHT30;40911;51.552;9.874;2023-08-20T14:59:06;32.53;59.55
13796;SHT30;40911;51.552;9.874;2023-08-20T15:01:30;32.03;59.74